sensor_id;sensor_type;location;lat;lon;timestamp;P1;durP1;ratioP1;P2;durP2;ratioP2
39750;SDS011;37579;51.074;17.004;2023-06-26T00:00:24;6.30;;;5.22;;
39750;SDS011;37579;51.074;17.004;2023-06-26T00:02:50;7.45;;;5.63;;
39750;SDS011;37579;51.074;17.004;2023-06-26T00:05:17;6.50;;;5.72;;
39750;SDS011;37579;51.074;17.004;2023-06-26T00:07:43;6.47;;;5.75;;
39750;SDS011;37579;51.074;17.004;2023-06-26T00:10:09;8.38;;;6.32;;
39750;SDS011;37579;51.074;17.004;2023-06-26T00:12:35;7.95;;;5.63;;
39750;SDS011;37579;51.074;17.004;2023-06-26T00:15:01;8.60;;;6.28;;
39750;SDS011;37579;51.074;17.004;2023-06-26T00:17:27;6.95;;;5.57;;
39750;SDS011;37579;51.074;17.004;2023-06-26T00:19:54;7.97;;;6.38;;
39750;SDS011;37579;51.074;17.004;2023-06-26T00:22:21;7.50;;;6.28;;
39750;SDS011;37579;51.074;17.004;2023-06-26T00:24:47;7.43;;;5.97;;
39750;SDS011;37579;51.074;17.004;2023-06-26T00:27:13;10.65;;;6.55;;
39750;SDS011;37579;51.074;17.004;2023-06-26T00:29:39;7.97;;;6.78;;
39750;SDS011;37579;51.074;17.004;2023-06-26T00:32:06;9.20;;;7.00;;
39750;SDS011;37579;51.074;17.004;2023-06-26T00:34:32;8.32;;;7.15;;
39750;SDS011;37579;51.074;17.004;2023-06-26T00:36:59;9.10;;;7.22;;
39750;SDS011;37579;51.074;17.004;2023-06-26T00:39:25;8.07;;;7.20;;
39750;SDS011;37579;51.074;17.004;2023-06-26T00:41:51;8.18;;;6.85;;
39750;SDS011;37579;51.074;17.004;2023-06-26T00:44:19;8.95;;;7.00;;
39750;SDS011;37579;51.074;17.004;2023-06-26T00:46:45;8.73;;;7.05;;
39750;SDS011;37579;51.074;17.004;2023-06-26T00:49:11;10.40;;;8.10;;
39750;SDS011;37579;51.074;17.004;2023-06-26T00:51:38;9.98;;;7.22;;
39750;SDS011;37579;51.074;17.004;2023-06-26T00:54:05;8.43;;;7.07;;
39750;SDS011;37579;51.074;17.004;2023-06-26T00:56:31;7.95;;;7.15;;
39750;SDS011;37579;51.074;17.004;2023-06-26T00:58:58;9.75;;;7.60;;
39750;SDS011;37579;51.074;17.004;2023-06-26T01:01:25;9.57;;;7.13;;
39750;SDS011;37579;51.074;17.004;2023-06-26T01:03:51;9.15;;;6.68;;
39750;SDS011;37579;51.074;17.004;2023-06-26T01:06:21;8.75;;;7.63;;
39750;SDS011;37579;51.074;17.004;2023-06-26T01:08:48;8.07;;;6.95;;
39750;SDS011;37579;51.074;17.004;2023-06-26T01:11:16;8.50;;;7.32;;
39750;SDS011;37579;51.074;17.004;2023-06-26T01:13:43;9.30;;;6.82;;
39750;SDS011;37579;51.074;17.004;2023-06-26T01:16:10;9.25;;;7.22;;
39750;SDS011;37579;51.074;17.004;2023-06-26T01:18:38;8.88;;;6.93;;
39750;SDS011;37579;51.074;17.004;2023-06-26T01:21:09;8.98;;;6.55;;
39750;SDS011;37579;51.074;17.004;2023-06-26T01:28:34;7.38;;;6.60;;
39750;SDS011;37579;51.074;17.004;2023-06-26T01:31:02;8.02;;;7.05;;
39750;SDS011;37579;51.074;17.004;2023-06-26T01:33:29;8.05;;;6.60;;
39750;SDS011;37579;51.074;17.004;2023-06-26T01:35:55;7.88;;;5.82;;
39750;SDS011;37579;51.074;17.004;2023-06-26T01:38:22;8.30;;;6.15;;
39750;SDS011;37579;51.074;17.004;2023-06-26T01:40:48;7.47;;;6.13;;
39750;SDS011;37579;51.074;17.004;2023-06-26T01:45:41;9.35;;;6.25;;
39750;SDS011;37579;51.074;17.004;2023-06-26T01:48:08;8.38;;;6.03;;
39750;SDS011;37579;51.074;17.004;2023-06-26T01:50:35;7.22;;;6.18;;
39750;SDS011;37579;51.074;17.004;2023-06-26T01:53:07;6.38;;;5.50;;
39750;SDS011;37579;51.074;17.004;2023-06-26T01:55:37;8.32;;;5.60;;
39750;SDS011;37579;51.074;17.004;2023-06-26T01:58:06;8.85;;;6.00;;
39750;SDS011;37579;51.074;17.004;2023-06-26T02:00:32;7.28;;;5.90;;
39750;SDS011;37579;51.074;17.004;2023-06-26T02:02:58;8.23;;;6.10;;
39750;SDS011;37579;51.074;17.004;2023-06-26T02:05:25;7.78;;;5.50;;
39750;SDS011;37579;51.074;17.004;2023-06-26T02:07:51;7.22;;;5.97;;
39750;SDS011;37579;51.074;17.004;2023-06-26T02:10:17;8.27;;;5.68;;
39750;SDS011;37579;51.074;17.004;2023-06-26T02:12:43;7.97;;;5.68;;
39750;SDS011;37579;51.074;17.004;2023-06-26T02:15:12;9.23;;;5.63;;
39750;SDS011;37579;51.074;17.004;2023-06-26T02:17:38;6.82;;;5.80;;
39750;SDS011;37579;51.074;17.004;2023-06-26T02:20:04;6.43;;;5.70;;
39750;SDS011;37579;51.074;17.004;2023-06-26T02:22:31;9.27;;;6.15;;
39750;SDS011;37579;51.074;17.004;2023-06-26T02:24:57;6.90;;;5.95;;
39750;SDS011;37579;51.074;17.004;2023-06-26T02:27:24;9.75;;;5.97;;
39750;SDS011;37579;51.074;17.004;2023-06-26T02:29:52;7.50;;;5.20;;
39750;SDS011;37579;51.074;17.004;2023-06-26T02:32:18;6.72;;;5.82;;
39750;SDS011;37579;51.074;17.004;2023-06-26T02:34:44;7.80;;;5.68;;
39750;SDS011;37579;51.074;17.004;2023-06-26T02:37:10;7.53;;;5.95;;
39750;SDS011;37579;51.074;17.004;2023-06-26T02:39:37;8.88;;;6.10;;
39750;SDS011;37579;51.074;17.004;2023-06-26T02:42:05;6.22;;;5.63;;
39750;SDS011;37579;51.074;17.004;2023-06-26T02:44:31;8.50;;;5.68;;
39750;SDS011;37579;51.074;17.004;2023-06-26T02:46:58;8.18;;;5.50;;
39750;SDS011;37579;51.074;17.004;2023-06-26T02:49:24;7.10;;;5.70;;
39750;SDS011;37579;51.074;17.004;2023-06-26T02:51:50;9.95;;;5.70;;
39750;SDS011;37579;51.074;17.004;2023-06-26T02:54:24;5.50;;;4.82;;
39750;SDS011;37579;51.074;17.004;2023-06-26T02:56:53;6.68;;;5.53;;
39750;SDS011;37579;51.074;17.004;2023-06-26T02:59:24;7.38;;;5.43;;
39750;SDS011;37579;51.074;17.004;2023-06-26T03:01:52;5.40;;;4.72;;
39750;SDS011;37579;51.074;17.004;2023-06-26T03:04:23;6.70;;;5.28;;
39750;SDS011;37579;51.074;17.004;2023-06-26T03:06:50;6.50;;;5.20;;
39750;SDS011;37579;51.074;17.004;2023-06-26T03:09:16;8.20;;;5.00;;
39750;SDS011;37579;51.074;17.004;2023-06-26T03:11:43;7.45;;;5.25;;
39750;SDS011;37579;51.074;17.004;2023-06-26T03:14:10;6.70;;;4.80;;
39750;SDS011;37579;51.074;17.004;2023-06-26T03:16:37;6.97;;;5.18;;
39750;SDS011;37579;51.074;17.004;2023-06-26T03:19:03;5.82;;;4.68;;
39750;SDS011;37579;51.074;17.004;2023-06-26T03:21:34;8.52;;;5.13;;
39750;SDS011;37579;51.074;17.004;2023-06-26T03:24:00;7.60;;;5.00;;
39750;SDS011;37579;51.074;17.004;2023-06-26T03:26:27;6.85;;;5.15;;
39750;SDS011;37579;51.074;17.004;2023-06-26T03:28:55;7.07;;;4.82;;
39750;SDS011;37579;51.074;17.004;2023-06-26T03:31:21;7.70;;;4.80;;
39750;SDS011;37579;51.074;17.004;2023-06-26T03:33:47;6.88;;;4.90;;
39750;SDS011;37579;51.074;17.004;2023-06-26T03:36:14;6.00;;;4.38;;
39750;SDS011;37579;51.074;17.004;2023-06-26T03:38:40;10.00;;;4.75;;
39750;SDS011;37579;51.074;17.004;2023-06-26T03:41:07;7.07;;;4.43;;
39750;SDS011;37579;51.074;17.004;2023-06-26T03:43:33;7.07;;;4.65;;
39750;SDS011;37579;51.074;17.004;2023-06-26T03:46:09;7.00;;;5.03;;
39750;SDS011;37579;51.074;17.004;2023-06-26T03:48:35;5.05;;;4.50;;
39750;SDS011;37579;51.074;17.004;2023-06-26T03:51:03;6.75;;;5.10;;
39750;SDS011;37579;51.074;17.004;2023-06-26T03:53:32;8.15;;;4.95;;
39750;SDS011;37579;51.074;17.004;2023-06-26T03:55:58;5.00;;;4.45;;
39750;SDS011;37579;51.074;17.004;2023-06-26T03:58:24;5.72;;;4.28;;
39750;SDS011;37579;51.074;17.004;2023-06-26T04:00:51;5.30;;;4.32;;
39750;SDS011;37579;51.074;17.004;2023-06-26T04:03:17;7.22;;;4.32;;
39750;SDS011;37579;51.074;17.004;2023-06-26T04:05:46;5.78;;;4.53;;
39750;SDS011;37579;51.074;17.004;2023-06-26T04:08:12;8.05;;;4.68;;
39750;SDS011;37579;51.074;17.004;2023-06-26T04:10:38;5.68;;;4.53;;
39750;SDS011;37579;51.074;17.004;2023-06-26T04:13:04;7.78;;;4.32;;
39750;SDS011;37579;51.074;17.004;2023-06-26T04:15:30;5.93;;;4.20;;
39750;SDS011;37579;51.074;17.004;2023-06-26T04:17:57;6.82;;;4.30;;
39750;SDS011;37579;51.074;17.004;2023-06-26T04:20:23;8.13;;;4.57;;
39750;SDS011;37579;51.074;17.004;2023-06-26T04:22:49;5.85;;;4.97;;
39750;SDS011;37579;51.074;17.004;2023-06-26T04:25:15;11.27;;;4.82;;
39750;SDS011;37579;51.074;17.004;2023-06-26T04:27:41;5.65;;;4.53;;
39750;SDS011;37579;51.074;17.004;2023-06-26T04:30:08;7.57;;;4.68;;
39750;SDS011;37579;51.074;17.004;2023-06-26T04:32:34;5.78;;;4.18;;
39750;SDS011;37579;51.074;17.004;2023-06-26T04:35:01;6.88;;;5.00;;
39750;SDS011;37579;51.074;17.004;2023-06-26T04:37:28;6.32;;;4.30;;
39750;SDS011;37579;51.074;17.004;2023-06-26T04:39:54;7.68;;;4.47;;
39750;SDS011;37579;51.074;17.004;2023-06-26T04:42:20;6.15;;;4.28;;
39750;SDS011;37579;51.074;17.004;2023-06-26T04:44:47;5.65;;;4.00;;
39750;SDS011;37579;51.074;17.004;2023-06-26T04:47:13;8.23;;;4.18;;
39750;SDS011;37579;51.074;17.004;2023-06-26T04:49:40;6.35;;;3.78;;
39750;SDS011;37579;51.074;17.004;2023-06-26T04:52:11;9.10;;;3.92;;
39750;SDS011;37579;51.074;17.004;2023-06-26T04:54:38;5.57;;;4.30;;
39750;SDS011;37579;51.074;17.004;2023-06-26T04:57:05;7.18;;;4.38;;
39750;SDS011;37579;51.074;17.004;2023-06-26T04:59:31;5.13;;;4.20;;
39750;SDS011;37579;51.074;17.004;2023-06-26T05:01:57;7.35;;;4.38;;
39750;SDS011;37579;51.074;17.004;2023-06-26T05:04:23;6.07;;;3.88;;
39750;SDS011;37579;51.074;17.004;2023-06-26T05:06:49;6.55;;;4.43;;
39750;SDS011;37579;51.074;17.004;2023-06-26T05:09:15;8.35;;;4.78;;
39750;SDS011;37579;51.074;17.004;2023-06-26T05:11:42;8.57;;;4.15;;
39750;SDS011;37579;51.074;17.004;2023-06-26T05:14:08;7.50;;;4.38;;
39750;SDS011;37579;51.074;17.004;2023-06-26T05:16:34;6.53;;;4.05;;
39750;SDS011;37579;51.074;17.004;2023-06-26T05:19:00;7.55;;;4.15;;
39750;SDS011;37579;51.074;17.004;2023-06-26T05:21:27;8.38;;;4.32;;
39750;SDS011;37579;51.074;17.004;2023-06-26T05:23:55;8.15;;;4.13;;
39750;SDS011;37579;51.074;17.004;2023-06-26T05:26:21;6.28;;;3.83;;
39750;SDS011;37579;51.074;17.004;2023-06-26T05:28:48;8.30;;;3.85;;
39750;SDS011;37579;51.074;17.004;2023-06-26T05:31:14;7.47;;;4.03;;
39750;SDS011;37579;51.074;17.004;2023-06-26T05:33:42;6.13;;;4.03;;
39750;SDS011;37579;51.074;17.004;2023-06-26T05:36:09;8.15;;;3.72;;
39750;SDS011;37579;51.074;17.004;2023-06-26T05:38:37;7.95;;;4.55;;
39750;SDS011;37579;51.074;17.004;2023-06-26T05:41:03;6.45;;;4.13;;
39750;SDS011;37579;51.074;17.004;2023-06-26T05:43:30;8.10;;;3.92;;
39750;SDS011;37579;51.074;17.004;2023-06-26T05:45:56;10.77;;;3.90;;
39750;SDS011;37579;51.074;17.004;2023-06-26T05:48:25;8.18;;;4.07;;
39750;SDS011;37579;51.074;17.004;2023-06-26T05:50:51;10.73;;;4.10;;
39750;SDS011;37579;51.074;17.004;2023-06-26T05:53:18;8.68;;;4.25;;
39750;SDS011;37579;51.074;17.004;2023-06-26T05:55:44;8.15;;;4.20;;
39750;SDS011;37579;51.074;17.004;2023-06-26T05:58:11;8.18;;;4.13;;
39750;SDS011;37579;51.074;17.004;2023-06-26T06:00:38;5.70;;;4.35;;
39750;SDS011;37579;51.074;17.004;2023-06-26T06:03:05;7.10;;;4.40;;
39750;SDS011;37579;51.074;17.004;2023-06-26T06:05:31;8.55;;;4.28;;
39750;SDS011;37579;51.074;17.004;2023-06-26T06:07:58;8.32;;;4.30;;
39750;SDS011;37579;51.074;17.004;2023-06-26T06:10:24;8.02;;;4.80;;
39750;SDS011;37579;51.074;17.004;2023-06-26T06:12:50;8.57;;;4.47;;
39750;SDS011;37579;51.074;17.004;2023-06-26T06:15:17;6.72;;;4.32;;
39750;SDS011;37579;51.074;17.004;2023-06-26T06:17:43;8.40;;;4.43;;
39750;SDS011;37579;51.074;17.004;2023-06-26T06:20:09;6.53;;;4.63;;
39750;SDS011;37579;51.074;17.004;2023-06-26T06:22:36;10.43;;;4.32;;
39750;SDS011;37579;51.074;17.004;2023-06-26T06:25:02;6.43;;;4.40;;
39750;SDS011;37579;51.074;17.004;2023-06-26T06:27:28;9.10;;;4.90;;
39750;SDS011;37579;51.074;17.004;2023-06-26T06:29:56;9.15;;;4.70;;
39750;SDS011;37579;51.074;17.004;2023-06-26T06:32:22;7.70;;;4.30;;
39750;SDS011;37579;51.074;17.004;2023-06-26T06:34:48;7.70;;;4.20;;
39750;SDS011;37579;51.074;17.004;2023-06-26T06:37:14;6.07;;;4.28;;
39750;SDS011;37579;51.074;17.004;2023-06-26T06:39:40;8.50;;;4.20;;
39750;SDS011;37579;51.074;17.004;2023-06-26T06:42:06;8.32;;;4.20;;
39750;SDS011;37579;51.074;17.004;2023-06-26T06:44:33;9.18;;;4.63;;
39750;SDS011;37579;51.074;17.004;2023-06-26T06:46:59;8.20;;;4.03;;
39750;SDS011;37579;51.074;17.004;2023-06-26T06:49:25;8.48;;;4.32;;
39750;SDS011;37579;51.074;17.004;2023-06-26T06:51:51;7.55;;;4.20;;
39750;SDS011;37579;51.074;17.004;2023-06-26T06:54:17;6.95;;;4.20;;
39750;SDS011;37579;51.074;17.004;2023-06-26T06:56:44;7.45;;;4.38;;
39750;SDS011;37579;51.074;17.004;2023-06-26T06:59:11;5.97;;;4.25;;
39750;SDS011;37579;51.074;17.004;2023-06-26T07:01:37;7.07;;;4.75;;
39750;SDS011;37579;51.074;17.004;2023-06-26T07:04:03;7.80;;;4.75;;
39750;SDS011;37579;51.074;17.004;2023-06-26T07:06:29;6.00;;;4.93;;
39750;SDS011;37579;51.074;17.004;2023-06-26T07:08:56;6.38;;;4.20;;
39750;SDS011;37579;51.074;17.004;2023-06-26T07:11:22;5.47;;;4.32;;
39750;SDS011;37579;51.074;17.004;2023-06-26T07:13:48;5.97;;;4.15;;
39750;SDS011;37579;51.074;17.004;2023-06-26T07:16:14;6.25;;;4.43;;
39750;SDS011;37579;51.074;17.004;2023-06-26T07:18:40;9.20;;;4.55;;
39750;SDS011;37579;51.074;17.004;2023-06-26T07:21:07;5.90;;;3.80;;
39750;SDS011;37579;51.074;17.004;2023-06-26T07:23:33;6.45;;;4.20;;
39750;SDS011;37579;51.074;17.004;2023-06-26T07:26:00;5.18;;;4.38;;
39750;SDS011;37579;51.074;17.004;2023-06-26T07:28:26;6.25;;;4.55;;
39750;SDS011;37579;51.074;17.004;2023-06-26T07:30:52;6.13;;;4.22;;
39750;SDS011;37579;51.074;17.004;2023-06-26T07:33:19;7.57;;;4.03;;
39750;SDS011;37579;51.074;17.004;2023-06-26T07:35:45;4.65;;;3.90;;
39750;SDS011;37579;51.074;17.004;2023-06-26T07:38:12;5.38;;;4.03;;
39750;SDS011;37579;51.074;17.004;2023-06-26T07:40:38;4.57;;;3.90;;
39750;SDS011;37579;51.074;17.004;2023-06-26T07:43:04;5.38;;;4.10;;
39750;SDS011;37579;51.074;17.004;2023-06-26T07:45:30;6.18;;;4.15;;
39750;SDS011;37579;51.074;17.004;2023-06-26T07:47:56;4.90;;;4.32;;
39750;SDS011;37579;51.074;17.004;2023-06-26T07:50:23;4.55;;;3.72;;
39750;SDS011;37579;51.074;17.004;2023-06-26T07:52:49;6.85;;;4.22;;
39750;SDS011;37579;51.074;17.004;2023-06-26T07:55:17;4.93;;;3.85;;
39750;SDS011;37579;51.074;17.004;2023-06-26T07:57:43;4.38;;;3.80;;
39750;SDS011;37579;51.074;17.004;2023-06-26T08:00:11;6.32;;;4.40;;
39750;SDS011;37579;51.074;17.004;2023-06-26T08:02:40;5.35;;;4.05;;
39750;SDS011;37579;51.074;17.004;2023-06-26T08:05:06;6.57;;;3.80;;
39750;SDS011;37579;51.074;17.004;2023-06-26T08:07:32;5.10;;;4.10;;
39750;SDS011;37579;51.074;17.004;2023-06-26T08:09:58;4.82;;;4.03;;
39750;SDS011;37579;51.074;17.004;2023-06-26T08:12:24;6.60;;;3.70;;
39750;SDS011;37579;51.074;17.004;2023-06-26T08:14:50;4.72;;;3.40;;
39750;SDS011;37579;51.074;17.004;2023-06-26T08:17:17;5.78;;;3.85;;
39750;SDS011;37579;51.074;17.004;2023-06-26T08:19:44;5.05;;;3.60;;
39750;SDS011;37579;51.074;17.004;2023-06-26T08:22:10;5.35;;;3.95;;
39750;SDS011;37579;51.074;17.004;2023-06-26T08:24:36;7.75;;;3.63;;
39750;SDS011;37579;51.074;17.004;2023-06-26T08:27:02;4.63;;;3.78;;
39750;SDS011;37579;51.074;17.004;2023-06-26T08:29:28;5.93;;;3.95;;
39750;SDS011;37579;51.074;17.004;2023-06-26T08:31:55;7.18;;;4.13;;
39750;SDS011;37579;51.074;17.004;2023-06-26T08:34:21;8.48;;;4.75;;
39750;SDS011;37579;51.074;17.004;2023-06-26T08:36:47;6.35;;;4.25;;
39750;SDS011;37579;51.074;17.004;2023-06-26T08:39:13;6.00;;;3.90;;
39750;SDS011;37579;51.074;17.004;2023-06-26T08:41:39;9.30;;;4.32;;
39750;SDS011;37579;51.074;17.004;2023-06-26T08:44:05;5.80;;;4.25;;
39750;SDS011;37579;51.074;17.004;2023-06-26T08:46:32;4.65;;;3.42;;
39750;SDS011;37579;51.074;17.004;2023-06-26T08:49:02;4.07;;;2.88;;
39750;SDS011;37579;51.074;17.004;2023-06-26T08:51:31;6.72;;;3.63;;
39750;SDS011;37579;51.074;17.004;2023-06-26T08:54:00;6.55;;;3.80;;
39750;SDS011;37579;51.074;17.004;2023-06-26T08:56:33;4.55;;;3.50;;
39750;SDS011;37579;51.074;17.004;2023-06-26T08:59:01;7.57;;;4.03;;
39750;SDS011;37579;51.074;17.004;2023-06-26T09:01:27;7.35;;;3.83;;
39750;SDS011;37579;51.074;17.004;2023-06-26T09:03:54;5.80;;;3.30;;
39750;SDS011;37579;51.074;17.004;2023-06-26T09:06:20;6.45;;;3.85;;
39750;SDS011;37579;51.074;17.004;2023-06-26T09:08:46;3.88;;;3.28;;
39750;SDS011;37579;51.074;17.004;2023-06-26T09:11:12;4.20;;;3.35;;
39750;SDS011;37579;51.074;17.004;2023-06-26T09:13:39;5.15;;;3.63;;
39750;SDS011;37579;51.074;17.004;2023-06-26T09:16:08;4.68;;;3.50;;
39750;SDS011;37579;51.074;17.004;2023-06-26T09:18:35;6.50;;;3.78;;
39750;SDS011;37579;51.074;17.004;2023-06-26T09:21:07;4.10;;;3.13;;
39750;SDS011;37579;51.074;17.004;2023-06-26T09:23:34;4.20;;;2.97;;
39750;SDS011;37579;51.074;17.004;2023-06-26T09:26:04;4.05;;;3.65;;
39750;SDS011;37579;51.074;17.004;2023-06-26T09:28:31;3.90;;;3.40;;
39750;SDS011;37579;51.074;17.004;2023-06-26T09:31:01;4.25;;;3.30;;
39750;SDS011;37579;51.074;17.004;2023-06-26T09:33:32;3.83;;;3.15;;
39750;SDS011;37579;51.074;17.004;2023-06-26T09:35:59;4.22;;;3.65;;
39750;SDS011;37579;51.074;17.004;2023-06-26T09:38:25;4.82;;;3.60;;
39750;SDS011;37579;51.074;17.004;2023-06-26T09:40:52;5.20;;;3.70;;
39750;SDS011;37579;51.074;17.004;2023-06-26T09:43:18;4.13;;;3.25;;
39750;SDS011;37579;51.074;17.004;2023-06-26T09:45:44;3.63;;;3.30;;
39750;SDS011;37579;51.074;17.004;2023-06-26T09:48:10;4.35;;;3.67;;
39750;SDS011;37579;51.074;17.004;2023-06-26T09:50:41;4.40;;;3.17;;
39750;SDS011;37579;51.074;17.004;2023-06-26T09:53:08;3.58;;;3.28;;
39750;SDS011;37579;51.074;17.004;2023-06-26T09:55:35;5.25;;;3.15;;
39750;SDS011;37579;51.074;17.004;2023-06-26T09:58:05;3.70;;;3.38;;
39750;SDS011;37579;51.074;17.004;2023-06-26T10:00:31;4.35;;;3.47;;
39750;SDS011;37579;51.074;17.004;2023-06-26T10:03:00;4.00;;;3.15;;
39750;SDS011;37579;51.074;17.004;2023-06-26T10:05:27;5.35;;;3.33;;
39750;SDS011;37579;51.074;17.004;2023-06-26T10:07:53;3.65;;;2.97;;
39750;SDS011;37579;51.074;17.004;2023-06-26T10:10:21;4.07;;;3.05;;
39750;SDS011;37579;51.074;17.004;2023-06-26T10:12:50;5.78;;;3.67;;
39750;SDS011;37579;51.074;17.004;2023-06-26T10:15:17;4.85;;;3.58;;
39750;SDS011;37579;51.074;17.004;2023-06-26T10:17:43;5.13;;;3.65;;
39750;SDS011;37579;51.074;17.004;2023-06-26T10:20:11;3.80;;;3.05;;
39750;SDS011;37579;51.074;17.004;2023-06-26T10:22:43;4.03;;;3.63;;
39750;SDS011;37579;51.074;17.004;2023-06-26T10:25:10;3.60;;;3.17;;
39750;SDS011;37579;51.074;17.004;2023-06-26T10:27:38;4.47;;;3.42;;
39750;SDS011;37579;51.074;17.004;2023-06-26T10:30:05;4.15;;;3.13;;
39750;SDS011;37579;51.074;17.004;2023-06-26T10:32:32;3.22;;;2.92;;
39750;SDS011;37579;51.074;17.004;2023-06-26T10:34:59;4.57;;;3.30;;
39750;SDS011;37579;51.074;17.004;2023-06-26T10:37:47;5.32;;;3.42;;
39750;SDS011;37579;51.074;17.004;2023-06-26T10:40:14;3.65;;;3.22;;
39750;SDS011;37579;51.074;17.004;2023-06-26T10:42:40;4.85;;;3.22;;
39750;SDS011;37579;51.074;17.004;2023-06-26T10:45:10;3.63;;;2.97;;
39750;SDS011;37579;51.074;17.004;2023-06-26T10:47:37;4.47;;;3.40;;
39750;SDS011;37579;51.074;17.004;2023-06-26T10:55:36;5.10;;;3.35;;
39750;SDS011;37579;51.074;17.004;2023-06-26T10:58:02;5.22;;;3.35;;
39750;SDS011;37579;51.074;17.004;2023-06-26T11:00:29;5.57;;;3.70;;
39750;SDS011;37579;51.074;17.004;2023-06-26T11:02:55;3.65;;;3.25;;
39750;SDS011;37579;51.074;17.004;2023-06-26T11:05:25;5.03;;;3.63;;
39750;SDS011;37579;51.074;17.004;2023-06-26T11:10:30;4.47;;;3.17;;
39750;SDS011;37579;51.074;17.004;2023-06-26T11:13:13;5.07;;;3.55;;
39750;SDS011;37579;51.074;17.004;2023-06-26T11:15:42;4.95;;;2.75;;
39750;SDS011;37579;51.074;17.004;2023-06-26T11:18:09;6.32;;;3.75;;
39750;SDS011;37579;51.074;17.004;2023-06-26T11:20:35;3.50;;;3.20;;
39750;SDS011;37579;51.074;17.004;2023-06-26T11:23:02;5.50;;;3.60;;
39750;SDS011;37579;51.074;17.004;2023-06-26T11:25:35;5.93;;;3.53;;
39750;SDS011;37579;51.074;17.004;2023-06-26T11:28:02;5.72;;;3.35;;
39750;SDS011;37579;51.074;17.004;2023-06-26T11:30:29;4.43;;;3.33;;
39750;SDS011;37579;51.074;17.004;2023-06-26T11:33:08;6.03;;;3.65;;
39750;SDS011;37579;51.074;17.004;2023-06-26T11:35:34;5.00;;;3.45;;
39750;SDS011;37579;51.074;17.004;2023-06-26T11:38:03;9.38;;;4.03;;
39750;SDS011;37579;51.074;17.004;2023-06-26T11:40:33;7.28;;;3.35;;
39750;SDS011;37579;51.074;17.004;2023-06-26T11:43:01;5.22;;;3.65;;
39750;SDS011;37579;51.074;17.004;2023-06-26T11:45:28;6.68;;;3.78;;
39750;SDS011;37579;51.074;17.004;2023-06-26T11:47:55;9.02;;;4.18;;
39750;SDS011;37579;51.074;17.004;2023-06-26T11:50:22;4.70;;;3.55;;
39750;SDS011;37579;51.074;17.004;2023-06-26T11:52:57;7.25;;;3.95;;
39750;SDS011;37579;51.074;17.004;2023-06-26T11:55:24;7.93;;;4.70;;
39750;SDS011;37579;51.074;17.004;2023-06-26T11:57:52;6.57;;;3.95;;
39750;SDS011;37579;51.074;17.004;2023-06-26T12:00:19;10.98;;;5.43;;
39750;SDS011;37579;51.074;17.004;2023-06-26T12:02:45;8.43;;;4.80;;
39750;SDS011;37579;51.074;17.004;2023-06-26T12:05:15;11.98;;;5.32;;
39750;SDS011;37579;51.074;17.004;2023-06-26T12:07:46;8.32;;;4.97;;
39750;SDS011;37579;51.074;17.004;2023-06-26T12:10:13;8.27;;;5.20;;
39750;SDS011;37579;51.074;17.004;2023-06-26T12:12:40;7.88;;;4.60;;
39750;SDS011;37579;51.074;17.004;2023-06-26T12:15:07;9.68;;;4.70;;
39750;SDS011;37579;51.074;17.004;2023-06-26T12:17:33;10.95;;;5.10;;
39750;SDS011;37579;51.074;17.004;2023-06-26T12:20:03;7.78;;;4.22;;
39750;SDS011;37579;51.074;17.004;2023-06-26T12:22:34;8.52;;;4.65;;
39750;SDS011;37579;51.074;17.004;2023-06-26T12:25:00;9.05;;;4.93;;
39750;SDS011;37579;51.074;17.004;2023-06-26T12:27:27;8.48;;;4.93;;
39750;SDS011;37579;51.074;17.004;2023-06-26T12:29:53;9.38;;;4.95;;
39750;SDS011;37579;51.074;17.004;2023-06-26T12:32:26;8.77;;;5.18;;
39750;SDS011;37579;51.074;17.004;2023-06-26T12:34:52;8.20;;;4.95;;
39750;SDS011;37579;51.074;17.004;2023-06-26T12:37:18;8.50;;;4.43;;
39750;SDS011;37579;51.074;17.004;2023-06-26T12:39:52;6.95;;;4.10;;
39750;SDS011;37579;51.074;17.004;2023-06-26T12:42:22;8.68;;;4.95;;
39750;SDS011;37579;51.074;17.004;2023-06-26T12:44:48;7.85;;;4.55;;
39750;SDS011;37579;51.074;17.004;2023-06-26T12:47:15;7.82;;;4.95;;
39750;SDS011;37579;51.074;17.004;2023-06-26T12:49:43;9.57;;;4.78;;
39750;SDS011;37579;51.074;17.004;2023-06-26T12:52:10;7.90;;;4.30;;
39750;SDS011;37579;51.074;17.004;2023-06-26T12:54:37;6.68;;;4.43;;
39750;SDS011;37579;51.074;17.004;2023-06-26T12:57:04;8.48;;;4.40;;
39750;SDS011;37579;51.074;17.004;2023-06-26T12:59:30;7.78;;;4.53;;
39750;SDS011;37579;51.074;17.004;2023-06-26T13:02:00;6.57;;;4.47;;
39750;SDS011;37579;51.074;17.004;2023-06-26T13:04:26;7.07;;;5.05;;
39750;SDS011;37579;51.074;17.004;2023-06-26T13:06:52;9.43;;;4.47;;
39750;SDS011;37579;51.074;17.004;2023-06-26T13:09:22;6.45;;;4.28;;
39750;SDS011;37579;51.074;17.004;2023-06-26T13:11:50;7.68;;;4.38;;
39750;SDS011;37579;51.074;17.004;2023-06-26T13:14:16;6.93;;;4.20;;
39750;SDS011;37579;51.074;17.004;2023-06-26T13:16:42;5.95;;;4.78;;
39750;SDS011;37579;51.074;17.004;2023-06-26T13:19:08;7.88;;;4.75;;
39750;SDS011;37579;51.074;17.004;2023-06-26T13:21:34;6.45;;;4.00;;
39750;SDS011;37579;51.074;17.004;2023-06-26T13:24:01;5.90;;;3.78;;
39750;SDS011;37579;51.074;17.004;2023-06-26T13:26:29;5.30;;;3.78;;
39750;SDS011;37579;51.074;17.004;2023-06-26T13:28:55;6.57;;;4.32;;
39750;SDS011;37579;51.074;17.004;2023-06-26T13:31:22;6.63;;;4.15;;
39750;SDS011;37579;51.074;17.004;2023-06-26T13:33:48;8.27;;;4.20;;
39750;SDS011;37579;51.074;17.004;2023-06-26T13:36:17;7.18;;;4.32;;
39750;SDS011;37579;51.074;17.004;2023-06-26T13:38:44;5.47;;;4.20;;
39750;SDS011;37579;51.074;17.004;2023-06-26T13:41:10;6.43;;;3.88;;
39750;SDS011;37579;51.074;17.004;2023-06-26T13:43:36;6.18;;;4.47;;
39750;SDS011;37579;51.074;17.004;2023-06-26T13:46:03;6.65;;;4.28;;
39750;SDS011;37579;51.074;17.004;2023-06-26T13:48:29;5.30;;;3.58;;
39750;SDS011;37579;51.074;17.004;2023-06-26T13:50:55;6.57;;;4.10;;
39750;SDS011;37579;51.074;17.004;2023-06-26T13:53:21;5.35;;;4.03;;
39750;SDS011;37579;51.074;17.004;2023-06-26T13:55:48;7.60;;;3.65;;
39750;SDS011;37579;51.074;17.004;2023-06-26T13:58:14;5.63;;;4.18;;
39750;SDS011;37579;51.074;17.004;2023-06-26T14:00:40;8.35;;;4.00;;
39750;SDS011;37579;51.074;17.004;2023-06-26T14:03:09;5.53;;;3.83;;
39750;SDS011;37579;51.074;17.004;2023-06-26T14:05:36;6.10;;;3.80;;
39750;SDS011;37579;51.074;17.004;2023-06-26T14:08:02;6.38;;;4.30;;
39750;SDS011;37579;51.074;17.004;2023-06-26T14:10:29;8.10;;;4.20;;
39750;SDS011;37579;51.074;17.004;2023-06-26T14:12:56;5.65;;;3.53;;
39750;SDS011;37579;51.074;17.004;2023-06-26T14:15:22;5.60;;;3.58;;
39750;SDS011;37579;51.074;17.004;2023-06-26T14:17:48;6.68;;;3.95;;
39750;SDS011;37579;51.074;17.004;2023-06-26T14:20:15;7.60;;;3.72;;
39750;SDS011;37579;51.074;17.004;2023-06-26T14:22:42;5.75;;;3.53;;
39750;SDS011;37579;51.074;17.004;2023-06-26T14:25:12;6.05;;;3.67;;
39750;SDS011;37579;51.074;17.004;2023-06-26T14:27:39;7.53;;;4.10;;
39750;SDS011;37579;51.074;17.004;2023-06-26T14:30:05;7.65;;;3.78;;
39750;SDS011;37579;51.074;17.004;2023-06-26T14:32:32;4.70;;;3.33;;
39750;SDS011;37579;51.074;17.004;2023-06-26T14:34:59;8.27;;;4.00;;
39750;SDS011;37579;51.074;17.004;2023-06-26T14:37:25;5.20;;;3.53;;
39750;SDS011;37579;51.074;17.004;2023-06-26T14:39:52;6.80;;;3.55;;
39750;SDS011;37579;51.074;17.004;2023-06-26T14:42:18;5.32;;;3.42;;
39750;SDS011;37579;51.074;17.004;2023-06-26T14:44:44;7.93;;;3.70;;
39750;SDS011;37579;51.074;17.004;2023-06-26T14:47:13;6.22;;;3.67;;